This is the latest recevied weather packets stored in our database for station/object DG4MND-4. If no packets are shown the sender has not sent any weather packets the latest 10 day(s).
| Time | Temp. | Humidity | Pressure | Rain* | Wind** | Luminosity | Snow |
|---|---|---|---|---|---|---|---|
| 1777986642 | 16.11° C | 77% | 1007.1 hPa | 0 mm | - | - | - |
| 1777986039 | 16.11° C | 81% | 1007.1 hPa | 0 mm | - | - | - |
| 1777985435 | 15.56° C | 83% | 1007.3 hPa | 0.25 mm | - | - | - |
| 1777984831 | 15.56° C | 83% | 1007.3 hPa | 0.25 mm | - | - | - |
| 1777984228 | 15.56° C | 85% | 1007.4 hPa | 0.25 mm | - | - | - |
| 1777983625 | 15.56° C | 89% | 1007.5 hPa | 0.25 mm | - | - | - |
| 1777983020 | 15° C | 88% | 1007.8 hPa | 0.25 mm | - | - | - |
| 1777982417 | 15.56° C | 87% | 1007.8 hPa | 0.25 mm | - | - | - |
| 1777981877 | 15.56° C | 83% | 1008 hPa | 0 mm | - | - | - |
| 1777981270 | 16.67° C | 80% | 1007.8 hPa | 0 mm | - | - | - |
| 1777980670 | 17.22° C | 76% | 1007.7 hPa | 0 mm | - | - | - |
| 1777980066 | 18.33° C | 69% | 1007.4 hPa | 0 mm | - | - | - |
| 1777979463 | 18.89° C | 63% | 1007.4 hPa | 0 mm | - | - | - |
| 1777978859 | 18.89° C | 62% | 1007.2 hPa | 0 mm | - | - | - |
| 1777978260 | 18.89° C | 62% | 1007.3 hPa | 0 mm | - | - | - |
| 1777977649 | 19.44° C | 61% | 1007.4 hPa | 0 mm | - | - | - |
| 1777977049 | 20° C | 59% | 1007.2 hPa | 0 mm | - | - | - |
| 1777976445 | 19.44° C | 60% | 1007.3 hPa | 0 mm | - | - | - |
| 1777975842 | 18.89° C | 60% | 1007.3 hPa | 0 mm | - | - | - |
| 1777975235 | 18.33° C | 61% | 1007.4 hPa | 0 mm | - | - | - |
| 1777974632 | 18.33° C | 63% | 1007.4 hPa | 0 mm | - | - | - |
| 1777974028 | 18.33° C | 63% | 1007.4 hPa | 0 mm | - | - | - |
| 1777973428 | 18.89° C | 61% | 1007.4 hPa | 0 mm | - | - | - |
| 1777972822 | 18.33° C | 62% | 1007.5 hPa | 0 mm | - | - | - |
| 1777972218 | 18.89° C | 63% | 1007.5 hPa | 0 mm | - | - | - |
* Rain latest hour (hover to see other rain measurements)
** Current wind speed in m/s (hover to see current wind gust speed)